Time;durP1;ratioP1;P1;durP2;ratioP2;P2;SDS_P1;SDS_P2;PMS_P1;PMS_P2;Temp;Humidity;BMP_temperature;BMP_pressure;BME280_temperature;BME280_humidity;BME280_pressure;Samples;Min_cycle;Max_cycle;Signal;HPM_P1;HPM_P2
2022/12/15 00:40:41;;;;;;;;;;;14.60;45.50;;;;;;5036410;28;19931;-85
2022/12/15 00:43:10;;;;;;;;;;;14.50;45.50;;;;;;5019906;28;20024;-86
2022/12/15 00:48:21;;;;;;;;;;;14.40;45.60;;;;;;5037452;28;19934;-86
2022/12/15 00:50:52;;;;;;;;;;;14.40;45.60;;;;;;5020590;28;19909;-85
2022/12/15 01:20:43;;;;;;;;;;;13.80;46.00;;;;;;5034984;28;20349;-85
2022/12/15 01:23:09;;;;;;;;;;;13.80;46.00;;;;;;5019940;28;19909;-85
2022/12/15 01:25:36;;;;;;;;;;;13.80;46.10;;;;;;5037540;28;19909;-85
2022/12/15 01:28:02;;;;;;;;;;;13.80;46.10;;;;;;5037176;28;19917;-86
2022/12/15 01:30:28;;;;;;;;;;;13.90;46.00;;;;;;5035593;28;19909;-86
2022/12/15 01:32:53;;;;;;;;;;;13.90;45.90;;;;;;5017432;28;20138;-85
2022/12/15 01:35:19;;;;;;;;;;;14.00;45.90;;;;;;5015720;28;19909;-86
2022/12/15 01:37:45;;;;;;;;;;;14.00;45.90;;;;;;5013910;28;19992;-85
2022/12/15 01:42:57;;;;;;;;;;;14.00;45.80;;;;;;5033161;28;20121;-86
2022/12/15 01:45:22;;;;;;;;;;;13.90;45.80;;;;;;5017147;28;19909;-85
2022/12/15 01:47:51;;;;;;;;;;;13.90;45.80;;;;;;5033470;28;20000;-86
2022/12/15 01:50:17;;;;;;;;;;;13.90;45.80;;;;;;5034653;28;20278;-86
2022/12/15 01:52:43;;;;;;;;;;;13.90;45.80;;;;;;5017210;28;20112;-85
2022/12/15 01:55:09;;;;;;;;;;;13.90;45.80;;;;;;5016688;28;19984;-86
2022/12/15 01:57:35;;;;;;;;;;;13.80;45.70;;;;;;5016511;28;19909;-86
2022/12/15 02:00:03;;;;;;;;;;;13.80;45.80;;;;;;5033642;28;20191;-86
2022/12/15 02:02:29;;;;;;;;;;;13.80;45.80;;;;;;5035089;28;19909;-86
2022/12/15 02:04:56;;;;;;;;;;;13.70;45.80;;;;;;5017245;28;19975;-86
2022/12/15 02:07:22;;;;;;;;;;;13.70;45.90;;;;;;5033633;28;19916;-86
2022/12/15 02:09:48;;;;;;;;;;;13.70;45.90;;;;;;5016935;28;19909;-85
2022/12/15 02:12:20;;;;;;;;;;;13.60;45.90;;;;;;5017047;28;19964;-86
2022/12/15 02:14:52;;;;;;;;;;;13.60;46.40;;;;;;5016751;28;19909;-86
2022/12/15 02:17:22;;;;;;;;;;;13.60;46.00;;;;;;5034187;28;19909;-86
2022/12/15 02:20:09;;;;;;;;;;;13.50;46.00;;;;;;5016928;28;19921;-86
2022/12/15 02:22:53;;;;;;;;;;;13.50;46.00;;;;;;5005559;28;20004;-85
2022/12/15 02:25:27;;;;;;;;;;;13.50;46.00;;;;;;5048722;28;19971;-86
2022/12/15 02:28:09;;;;;;;;;;;13.40;46.00;;;;;;5016380;28;19920;-86
2022/12/15 02:30:37;;;;;;;;;;;13.40;46.10;;;;;;5016220;28;19975;-86
2022/12/15 02:33:29;;;;;;;;;;;13.40;46.00;;;;;;5015607;28;19924;-86
2022/12/15 02:36:15;;;;;;;;;;;13.50;45.90;;;;;;5014449;28;19909;-86
2022/12/15 02:38:41;;;;;;;;;;;13.60;45.80;;;;;;5016536;28;19928;-86
2022/12/15 02:41:27;;;;;;;;;;;13.60;45.70;;;;;;5018789;28;19917;-86
2022/12/15 02:43:52;;;;;;;;;;;13.60;45.70;;;;;;5017320;28;19924;-86
2022/12/15 02:46:30;;;;;;;;;;;13.60;45.70;;;;;;5017824;28;19909;-86
2022/12/15 02:49:04;;;;;;;;;;;13.60;45.70;;;;;;5018251;28;19944;-86
2022/12/15 02:51:48;;;;;;;;;;;13.60;45.60;;;;;;5017310;28;19920;-86
2022/12/15 02:54:14;;;;;;;;;;;13.60;45.60;;;;;;5050128;28;19910;-86
2022/12/15 02:56:42;;;;;;;;;;;13.60;45.60;;;;;;5020352;28;19935;-86
2022/12/15 02:59:26;;;;;;;;;;;13.60;45.70;;;;;;5021244;28;20267;-86
2022/12/15 03:01:55;;;;;;;;;;;13.50;45.60;;;;;;5020862;28;19959;-86
2022/12/15 03:04:21;;;;;;;;;;;13.50;45.60;;;;;;5021969;28;19909;-86
2022/12/15 03:06:54;;;;;;;;;;;13.50;45.60;;;;;;5023320;28;19913;-86
2022/12/15 03:09:20;;;;;;;;;;;13.50;45.70;;;;;;5021758;28;19909;-86
2022/12/15 03:11:45;;;;;;;;;;;13.40;45.70;;;;;;5021277;28;19936;-85
2022/12/15 03:14:11;;;;;;;;;;;13.40;45.70;;;;;;5020478;28;19909;-86
2022/12/15 03:16:36;;;;;;;;;;;13.40;45.70;;;;;;5036850;28;20004;-86
2022/12/15 03:19:02;;;;;;;;;;;13.30;45.70;;;;;;5019240;28;19913;-86
2022/12/15 03:21:28;;;;;;;;;;;13.30;45.70;;;;;;5020000;28;19955;-86
2022/12/15 03:23:53;;;;;;;;;;;13.30;45.70;;;;;;5019634;28;19999;-86
2022/12/15 03:26:19;;;;;;;;;;;13.30;45.70;;;;;;5020553;28;19917;-86
2022/12/15 03:28:45;;;;;;;;;;;13.20;45.70;;;;;;5019538;28;19948;-86
2022/12/15 03:31:10;;;;;;;;;;;13.20;45.70;;;;;;5020828;28;20002;-86
2022/12/15 03:33:36;;;;;;;;;;;13.10;45.70;;;;;;5020820;28;19976;-86
2022/12/15 03:36:01;;;;;;;;;;;13.10;45.70;;;;;;5021273;28;19991;-86
2022/12/15 03:38:27;;;;;;;;;;;13.20;45.80;;;;;;5020024;28;20274;-86
2022/12/15 03:40:53;;;;;;;;;;;13.10;45.70;;;;;;5020810;28;19920;-86
2022/12/15 03:43:18;;;;;;;;;;;13.10;45.70;;;;;;5039191;28;20325;-86
2022/12/15 03:45:44;;;;;;;;;;;13.10;45.70;;;;;;5037838;28;20159;-86
2022/12/15 03:48:09;;;;;;;;;;;13.10;45.80;;;;;;5019958;28;19917;-86
2022/12/15 03:50:36;;;;;;;;;;;13.00;45.80;;;;;;5020262;28;19917;-86
2022/12/15 03:53:02;;;;;;;;;;;13.00;45.80;;;;;;5020420;28;19963;-86
2022/12/15 03:55:28;;;;;;;;;;;12.90;45.80;;;;;;5021209;28;19917;-86
2022/12/15 03:57:55;;;;;;;;;;;12.80;45.80;;;;;;5019562;28;19952;-86
2022/12/15 04:00:21;;;;;;;;;;;12.80;45.90;;;;;;5020872;28;20159;-86
2022/12/15 04:02:47;;;;;;;;;;;12.80;45.90;;;;;;5020318;28;19959;-85
2022/12/15 04:05:21;;;;;;;;;;;12.70;45.90;;;;;;5021013;28;19979;-85
2022/12/15 04:07:47;;;;;;;;;;;12.70;46.00;;;;;;5038434;28;20251;-86
2022/12/15 04:10:13;;;;;;;;;;;13.10;45.90;;;;;;5021624;28;20341;-86
2022/12/15 04:12:39;;;;;;;;;;;14.30;44.60;;;;;;5019725;28;19913;-86
2022/12/15 04:15:05;;;;;;;;;;;14.80;43.90;;;;;;5036329;28;19909;-86
2022/12/15 04:17:31;;;;;;;;;;;15.00;43.50;;;;;;5019105;28;20237;-86
2022/12/15 04:20:09;;;;;;;;;;;15.30;43.20;;;;;;5017697;28;20287;-86
2022/12/15 04:22:41;;;;;;;;;;;15.50;43.00;;;;;;5000930;28;21912;-86
2022/12/15 05:33:40;;;;;;;;;;;16.40;41.70;;;;;;5031461;28;20212;-85
2022/12/15 05:36:06;;;;;;;;;;;16.30;41.80;;;;;;5014846;28;19920;-86
2022/12/15 05:38:32;;;;;;;;;;;16.10;42.00;;;;;;5015829;28;19921;-86
2022/12/15 05:40:58;;;;;;;;;;;15.90;42.10;;;;;;5014784;28;19909;-86
2022/12/15 05:43:23;;;;;;;;;;;15.80;42.20;;;;;;5014125;28;20237;-86
2022/12/15 05:45:49;;;;;;;;;;;15.70;42.30;;;;;;5014966;28;20327;-86
2022/12/15 05:48:15;;;;;;;;;;;15.70;42.40;;;;;;5015903;28;19928;-86
2022/12/15 05:50:40;;;;;;;;;;;15.80;42.30;;;;;;5014007;28;20007;-86
2022/12/15 05:53:06;;;;;;;;;;;15.90;42.10;;;;;;5014358;28;19917;-86
2022/12/15 05:55:31;;;;;;;;;;;16.20;42.00;;;;;;5012923;28;19909;-86
2022/12/15 05:57:57;;;;;;;;;;;16.30;41.80;;;;;;5014190;28;19986;-86
2022/12/15 06:00:35;;;;;;;;;;;16.50;42.10;;;;;;5013871;28;19920;-86
2022/12/15 06:03:01;;;;;;;;;;;16.60;41.50;;;;;;5012966;28;19909;-86
2022/12/15 06:05:27;;;;;;;;;;;16.80;41.40;;;;;;5013285;28;19909;-86
2022/12/15 06:07:53;;;;;;;;;;;17.00;41.10;;;;;;5013266;28;19909;-86
2022/12/15 06:10:18;;;;;;;;;;;17.10;41.10;;;;;;5014378;28;20168;-86
2022/12/15 06:12:44;;;;;;;;;;;17.20;40.90;;;;;;5012650;28;20398;-86
2022/12/15 06:15:10;;;;;;;;;;;17.30;40.80;;;;;;5014687;28;20465;-86
2022/12/15 06:17:36;;;;;;;;;;;17.30;40.70;;;;;;5012428;28;19913;-86
2022/12/15 06:20:01;;;;;;;;;;;17.40;40.70;;;;;;5013477;28;19913;-86
2022/12/15 06:22:28;;;;;;;;;;;17.40;40.60;;;;;;5012918;28;20208;-87
2022/12/15 06:24:54;;;;;;;;;;;17.50;40.60;;;;;;5013484;28;19920;-87
2022/12/15 06:27:19;;;;;;;;;;;17.50;40.60;;;;;;5013421;28;19909;-87
2022/12/15 06:29:45;;;;;;;;;;;17.60;40.60;;;;;;5013176;28;19913;-87
2022/12/15 06:32:10;;;;;;;;;;;17.50;41.10;;;;;;5031757;28;20062;-87
2022/12/15 06:34:36;;;;;;;;;;;17.50;40.90;;;;;;5012928;28;19913;-88
2022/12/15 06:37:01;;;;;;;;;;;17.50;40.90;;;;;;5011262;28;19971;-88
2022/12/15 06:39:27;;;;;;;;;;;17.50;41.10;;;;;;5013562;28;20012;-87
2022/12/15 06:41:53;;;;;;;;;;;17.40;41.20;;;;;;5012592;28;20021;-88
2022/12/15 06:44:19;;;;;;;;;;;17.40;41.30;;;;;;5011343;28;20172;-88
2022/12/15 06:46:45;;;;;;;;;;;17.30;41.40;;;;;;5013735;28;19932;-88
2022/12/15 06:49:11;;;;;;;;;;;17.20;41.40;;;;;;5013346;28;20246;-88
2022/12/15 06:51:36;;;;;;;;;;;17.10;41.50;;;;;;5013422;28;19952;-88
2022/12/15 06:54:02;;;;;;;;;;;17.00;41.60;;;;;;5014649;28;19909;-88
2022/12/15 06:56:29;;;;;;;;;;;16.90;41.50;;;;;;5012623;28;19971;-87
2022/12/15 06:58:57;;;;;;;;;;;16.90;41.60;;;;;;5031312;28;19928;-88
2022/12/15 07:01:23;;;;;;;;;;;16.90;41.60;;;;;;5030416;28;20284;-88
2022/12/15 07:03:49;;;;;;;;;;;16.80;41.60;;;;;;5026110;28;19970;-88
2022/12/15 07:06:15;;;;;;;;;;;16.80;41.60;;;;;;5012466;28;19917;-88
2022/12/15 07:08:41;;;;;;;;;;;16.80;41.50;;;;;;5012952;28;20202;-88
2022/12/15 07:11:07;;;;;;;;;;;16.80;41.40;;;;;;5027328;28;19909;-86
2022/12/15 07:13:33;;;;;;;;;;;16.90;41.40;;;;;;5009220;28;19913;-87
2022/12/15 07:16:00;;;;;;;;;;;16.90;41.40;;;;;;5009439;28;19909;-87
2022/12/15 07:18:25;;;;;;;;;;;17.00;41.30;;;;;;5027101;28;20186;-87
2022/12/15 07:20:51;;;;;;;;;;;17.00;41.10;;;;;;5009175;28;20258;-87
2022/12/15 07:23:16;;;;;;;;;;;17.20;40.90;;;;;;5011702;28;19910;-87
2022/12/15 07:25:42;;;;;;;;;;;17.40;40.70;;;;;;5011600;28;19909;-87
2022/12/15 07:28:07;;;;;;;;;;;17.50;40.60;;;;;;5010065;28;19956;-87
2022/12/15 07:30:33;;;;;;;;;;;17.50;40.60;;;;;;5010223;28;19909;-87
2022/12/15 07:32:59;;;;;;;;;;;17.50;40.60;;;;;;5010260;28;19917;-87
2022/12/15 07:35:25;;;;;;;;;;;17.40;40.70;;;;;;5009490;28;20298;-87
2022/12/15 07:37:50;;;;;;;;;;;17.20;40.70;;;;;;5008373;28;19979;-87
2022/12/15 07:40:16;;;;;;;;;;;17.00;40.90;;;;;;5009548;28;19921;-87
2022/12/15 07:42:42;;;;;;;;;;;16.90;41.10;;;;;;5011266;28;19909;-87
2022/12/15 07:45:08;;;;;;;;;;;16.70;41.20;;;;;;5013268;28;19920;-87
2022/12/15 07:47:34;;;;;;;;;;;16.60;41.40;;;;;;5030298;28;20026;-87
2022/12/15 07:50:00;;;;;;;;;;;16.40;41.60;;;;;;5012384;28;19936;-87
2022/12/15 07:52:25;;;;;;;;;;;16.20;41.70;;;;;;5012680;28;19909;-87
2022/12/15 07:54:51;;;;;;;;;;;16.10;41.80;;;;;;5014900;28;20211;-87
2022/12/15 07:57:17;;;;;;;;;;;16.10;41.90;;;;;;5011773;28;20019;-86
2022/12/15 07:59:43;;;;;;;;;;;16.10;41.80;;;;;;5012201;28;20044;-87
2022/12/15 08:02:10;;;;;;;;;;;16.40;41.70;;;;;;5013004;28;20062;-87
2022/12/15 08:04:36;;;;;;;;;;;16.80;41.20;;;;;;5012524;28;20177;-87
2022/12/15 08:07:01;;;;;;;;;;;17.20;40.80;;;;;;5031492;28;19909;-87
2022/12/15 08:09:27;;;;;;;;;;;17.40;41.10;;;;;;5014629;28;19909;-87
2022/12/15 08:11:53;;;;;;;;;;;17.50;40.60;;;;;;5013562;28;19909;-87
2022/12/15 08:14:18;;;;;;;;;;;17.60;40.50;;;;;;5014511;28;19913;-87
2022/12/15 08:16:44;;;;;;;;;;;17.80;40.30;;;;;;4999231;28;19963;-87
2022/12/15 08:19:11;;;;;;;;;;;17.90;40.20;;;;;;5015441;28;19913;-87
2022/12/15 08:21:37;;;;;;;;;;;17.90;40.20;;;;;;5014904;28;19936;-87
2022/12/15 08:24:04;;;;;;;;;;;17.90;40.10;;;;;;5015410;28;19917;-87
2022/12/15 08:26:29;;;;;;;;;;;17.90;40.10;;;;;;5013231;28;19915;-87
2022/12/15 08:28:56;;;;;;;;;;;18.00;40.10;;;;;;5014933;28;19913;-87
2022/12/15 08:31:22;;;;;;;;;;;18.00;39.90;;;;;;5032641;28;20199;-87
2022/12/15 08:33:48;;;;;;;;;;;18.00;39.90;;;;;;5013513;28;20095;-87
2022/12/15 08:36:15;;;;;;;;;;;18.00;39.90;;;;;;5015699;28;19986;-87
2022/12/15 08:38:41;;;;;;;;;;;18.00;40.00;;;;;;5015796;28;19925;-87
2022/12/15 08:41:11;;;;;;;;;;;17.90;40.00;;;;;;5030177;28;19923;-87
2022/12/15 08:43:37;;;;;;;;;;;17.90;40.00;;;;;;5013478;28;19920;-87
2022/12/15 08:46:04;;;;;;;;;;;17.80;40.10;;;;;;5014480;28;19913;-87
2022/12/15 08:48:30;;;;;;;;;;;17.70;40.20;;;;;;5012632;28;19916;-87
2022/12/15 08:50:56;;;;;;;;;;;17.80;40.10;;;;;;5011336;28;19909;-87
2022/12/15 08:53:22;;;;;;;;;;;17.60;40.20;;;;;;5011175;28;19909;-87
2022/12/15 08:55:48;;;;;;;;;;;17.70;40.20;;;;;;5012153;28;19974;-87
2022/12/15 08:58:14;;;;;;;;;;;17.90;40.20;;;;;;5011304;28;19982;-87
2022/12/15 09:00:40;;;;;;;;;;;18.10;40.00;;;;;;5011266;28;20245;-87
2022/12/15 09:03:06;;;;;;;;;;;18.20;39.90;;;;;;5011258;28;19916;-87
2022/12/15 09:05:33;;;;;;;;;;;18.60;39.70;;;;;;5014486;28;19921;-87
2022/12/15 09:07:59;;;;;;;;;;;19.00;39.40;;;;;;5032719;28;19909;-88
2022/12/15 09:10:24;;;;;;;;;;;19.50;39.00;;;;;;5014793;28;19917;-87
2022/12/15 09:12:50;;;;;;;;;;;19.70;38.60;;;;;;5014136;28;20156;-87
2022/12/15 09:15:16;;;;;;;;;;;19.90;38.40;;;;;;5013946;28;20107;-87
2022/12/15 09:17:42;;;;;;;;;;;19.90;38.30;;;;;;5030123;28;19909;-87
2022/12/15 09:20:08;;;;;;;;;;;20.30;38.00;;;;;;5011256;28;19921;-87
2022/12/15 09:22:35;;;;;;;;;;;20.50;37.70;;;;;;5011770;28;19913;-86
2022/12/15 09:25:01;;;;;;;;;;;20.60;37.40;;;;;;5026692;28;20173;-87
2022/12/15 09:27:29;;;;;;;;;;;20.50;37.30;;;;;;5013907;28;20067;-87
2022/12/15 09:29:56;;;;;;;;;;;20.40;37.30;;;;;;5012118;28;20175;-87
2022/12/15 09:32:21;;;;;;;;;;;20.30;37.40;;;;;;5011833;28;20195;-87
2022/12/15 09:34:47;;;;;;;;;;;20.30;37.70;;;;;;5023235;28;19917;-87
2022/12/15 09:37:12;;;;;;;;;;;20.30;37.80;;;;;;5012060;28;19948;-86
2022/12/15 09:39:38;;;;;;;;;;;20.30;37.80;;;;;;5010563;28;20054;-86
2022/12/15 09:42:04;;;;;;;;;;;20.30;37.80;;;;;;5010553;28;20016;-86
2022/12/15 09:44:30;;;;;;;;;;;20.30;37.80;;;;;;5026877;28;20217;-86
2022/12/15 09:47:11;;;;;;;;;;;20.30;37.80;;;;;;5007534;28;20175;-86
2022/12/15 09:49:40;;;;;;;;;;;20.20;37.80;;;;;;5009633;28;19917;-86
2022/12/15 09:52:10;;;;;;;;;;;20.20;37.90;;;;;;5010335;28;19909;-86
2022/12/15 09:54:35;;;;;;;;;;;20.10;37.90;;;;;;5009468;28;20207;-86
2022/12/15 09:57:09;;;;;;;;;;;20.00;37.90;;;;;;5025632;28;19979;-86
2022/12/15 09:59:54;;;;;;;;;;;20.00;38.00;;;;;;5030145;28;19967;-87
2022/12/15 10:02:25;;;;;;;;;;;19.80;38.10;;;;;;5041789;28;20224;-87
2022/12/15 10:04:56;;;;;;;;;;;19.70;38.20;;;;;;5010967;28;20043;-87
2022/12/15 10:07:28;;;;;;;;;;;19.60;38.30;;;;;;5028645;28;20336;-87
2022/12/15 10:09:54;;;;;;;;;;;19.50;38.40;;;;;;5010959;28;19959;-86
2022/12/15 10:12:23;;;;;;;;;;;19.30;38.50;;;;;;5010854;28;19948;-87
2022/12/15 10:14:51;;;;;;;;;;;19.20;38.50;;;;;;5009792;28;19921;-86
2022/12/15 10:17:24;;;;;;;;;;;19.10;38.70;;;;;;5009081;28;19920;-87
2022/12/15 10:19:56;;;;;;;;;;;18.90;38.70;;;;;;5008877;28;20486;-87
2022/12/15 10:22:27;;;;;;;;;;;18.80;38.90;;;;;;5007935;28;20203;-88
2022/12/15 10:24:55;;;;;;;;;;;18.70;39.00;;;;;;5010007;28;19978;-87
2022/12/15 10:27:39;;;;;;;;;;;18.60;39.10;;;;;;5026256;28;19955;-87
2022/12/15 10:30:08;;;;;;;;;;;18.50;39.10;;;;;;5027933;28;19913;-87
2022/12/15 10:32:49;;;;;;;;;;;18.50;39.20;;;;;;5009191;28;19984;-87
2022/12/15 10:35:16;;;;;;;;;;;18.50;39.20;;;;;;5010610;28;19909;-87
2022/12/15 10:37:42;;;;;;;;;;;18.50;39.20;;;;;;5010160;28;19910;-87
2022/12/15 10:40:08;;;;;;;;;;;18.60;39.10;;;;;;5010590;28;19924;-87
2022/12/15 10:42:44;;;;;;;;;;;18.70;39.00;;;;;;5030113;28;20008;-87
2022/12/15 10:45:28;;;;;;;;;;;18.80;38.80;;;;;;5013489;28;19983;-88
2022/12/15 10:48:02;;;;;;;;;;;19.00;38.80;;;;;;5012633;28;19917;-88
2022/12/15 10:50:28;;;;;;;;;;;19.10;38.60;;;;;;5010582;28;20262;-88
2022/12/15 10:52:54;;;;;;;;;;;19.20;38.50;;;;;;5010885;28;20007;-88
2022/12/15 10:55:39;;;;;;;;;;;19.30;38.40;;;;;;5009398;28;19909;-88
2022/12/15 10:58:21;;;;;;;;;;;19.40;38.40;;;;;;5010753;28;19999;-88
2022/12/15 11:00:47;;;;;;;;;;;19.30;38.40;;;;;;5011000;28;20213;-88
2022/12/15 11:03:20;;;;;;;;;;;19.20;38.40;;;;;;5009654;28;20237;-88
2022/12/15 11:05:50;;;;;;;;;;;19.10;38.60;;;;;;5027443;28;20004;-89
2022/12/15 11:08:16;;;;;;;;;;;18.90;38.70;;;;;;5009716;28;19920;-88
2022/12/15 11:13:35;;;;;;;;;;;18.60;39.10;;;;;;5027114;28;19948;-89
2022/12/15 11:16:15;;;;;;;;;;;18.50;39.20;;;;;;5010136;28;20081;-89
2022/12/15 11:18:44;;;;;;;;;;;18.40;39.40;;;;;;5011581;28;19913;-87
2022/12/15 11:21:15;;;;;;;;;;;18.30;39.50;;;;;;5010445;28;19999;-87
2022/12/15 11:23:44;;;;;;;;;;;18.20;39.50;;;;;;5011913;28;19917;-87
2022/12/15 11:26:29;;;;;;;;;;;18.20;39.60;;;;;;5012905;28;19949;-88
2022/12/15 11:29:00;;;;;;;;;;;18.20;39.70;;;;;;5046557;28;19909;-88
2022/12/15 11:31:30;;;;;;;;;;;18.20;39.60;;;;;;5013561;28;20246;-87
2022/12/15 11:33:56;;;;;;;;;;;18.40;39.50;;;;;;5015525;28;19929;-88
2022/12/15 11:36:34;;;;;;;;;;;18.60;39.40;;;;;;5012997;28;19971;-87
2022/12/15 11:39:12;;;;;;;;;;;18.70;39.30;;;;;;5013593;28;19956;-88
2022/12/15 11:41:42;;;;;;;;;;;18.80;39.20;;;;;;5015827;28;20137;-88
2022/12/15 11:44:17;;;;;;;;;;;18.90;39.10;;;;;;5015842;28;20008;-88
2022/12/15 11:46:50;;;;;;;;;;;19.00;38.90;;;;;;5013968;28;19909;-89
2022/12/15 11:49:19;;;;;;;;;;;19.10;39.10;;;;;;5012800;28;19913;-88
2022/12/15 11:51:47;;;;;;;;;;;19.10;39.00;;;;;;5013346;28;19913;-88
2022/12/15 11:54:13;;;;;;;;;;;19.20;39.00;;;;;;5014477;28;20376;-89
2022/12/15 11:56:45;;;;;;;;;;;19.20;39.00;;;;;;5010923;28;19948;-86
2022/12/15 11:59:17;;;;;;;;;;;19.10;39.00;;;;;;5013755;28;19913;-87
2022/12/15 12:01:45;;;;;;;;;;;19.10;39.20;;;;;;5011226;28;19913;-88
2022/12/15 12:04:29;;;;;;;;;;;19.00;39.30;;;;;;5010973;28;20289;-87
2022/12/15 12:06:55;;;;;;;;;;;18.90;39.40;;;;;;5011300;28;19974;-87
2022/12/15 12:09:20;;;;;;;;;;;18.80;39.50;;;;;;5013162;28;19909;-87
2022/12/15 12:12:04;;;;;;;;;;;18.70;39.60;;;;;;5012412;28;20007;-87
2022/12/15 12:14:49;;;;;;;;;;;18.60;39.70;;;;;;5046171;28;19970;-86
2022/12/15 12:17:35;;;;;;;;;;;18.50;39.80;;;;;;5011625;28;19963;-87
2022/12/15 12:20:08;;;;;;;;;;;18.40;39.90;;;;;;5014609;28;19913;-87
2022/12/15 12:22:38;;;;;;;;;;;18.20;40.00;;;;;;5010363;28;19909;-87
2022/12/15 12:25:10;;;;;;;;;;;18.20;40.20;;;;;;5009050;28;19921;-87
2022/12/15 12:27:44;;;;;;;;;;;18.10;40.20;;;;;;5006783;28;20013;-87
2022/12/15 12:30:12;;;;;;;;;;;18.00;40.30;;;;;;5009567;28;20197;-87
2022/12/15 12:32:50;;;;;;;;;;;17.90;40.40;;;;;;5009595;28;19954;-87
2022/12/15 12:35:15;;;;;;;;;;;17.80;40.90;;;;;;5027718;28;19917;-87
2022/12/15 12:37:41;;;;;;;;;;;17.70;40.60;;;;;;5007787;28;20144;-87
2022/12/15 12:40:15;;;;;;;;;;;17.70;40.60;;;;;;5024701;28;19913;-87
2022/12/15 12:42:44;;;;;;;;;;;17.60;40.70;;;;;;5010432;28;19917;-87
2022/12/15 12:45:11;;;;;;;;;;;17.60;40.80;;;;;;5008142;28;19909;-87
2022/12/15 12:47:39;;;;;;;;;;;17.60;40.80;;;;;;5008437;28;20001;-87
2022/12/15 12:50:12;;;;;;;;;;;17.60;40.80;;;;;;5025721;28;19940;-86
2022/12/15 12:52:45;;;;;;;;;;;17.70;40.70;;;;;;5007713;28;20254;-87
2022/12/15 12:55:10;;;;;;;;;;;17.90;40.60;;;;;;5007283;28;19909;-86
2022/12/15 12:57:40;;;;;;;;;;;18.00;40.50;;;;;;5007103;28;20071;-86
2022/12/15 13:00:39;;;;;;;;;;;18.20;40.40;;;;;;5005517;28;20266;-87
2022/12/15 13:03:11;;;;;;;;;;;18.30;40.30;;;;;;5025443;28;20008;-87
2022/12/15 13:05:37;;;;;;;;;;;18.30;40.20;;;;;;5008149;28;19994;-87
2022/12/15 13:08:09;;;;;;;;;;;18.30;40.20;;;;;;5008066;28;20102;-87
2022/12/15 13:10:39;;;;;;;;;;;18.40;40.30;;;;;;5007895;28;19999;-87
2022/12/15 13:13:17;;;;;;;;;;;18.40;40.20;;;;;;5006470;28;19945;-87
2022/12/15 13:15:47;;;;;;;;;;;18.50;40.30;;;;;;5006912;28;20228;-87
2022/12/15 13:18:17;;;;;;;;;;;18.50;40.20;;;;;;5006593;28;19909;-87
2022/12/15 13:20:44;;;;;;;;;;;18.50;40.20;;;;;;5008734;28;20308;-87
2022/12/15 13:23:16;;;;;;;;;;;18.50;40.20;;;;;;5027584;28;19917;-87
2022/12/15 13:25:43;;;;;;;;;;;18.50;40.30;;;;;;5008347;28;19909;-87
2022/12/15 13:28:23;;;;;;;;;;;18.40;40.30;;;;;;5008764;28;19943;-87
2022/12/15 13:31:12;;;;;;;;;;;18.30;40.40;;;;;;5010440;28;19916;-87
2022/12/15 13:33:51;;;;;;;;;;;18.20;40.50;;;;;;5014738;28;19947;-87
2022/12/15 13:36:35;;;;;;;;;;;18.10;40.60;;;;;;5010120;28;19910;-87
2022/12/15 13:39:01;;;;;;;;;;;18.00;40.70;;;;;;5041468;28;19914;-87
2022/12/15 13:41:27;;;;;;;;;;;17.90;40.80;;;;;;5006944;28;19909;-87
2022/12/15 13:43:53;;;;;;;;;;;17.80;40.90;;;;;;5024152;28;19944;-87
2022/12/15 13:46:27;;;;;;;;;;;17.70;41.10;;;;;;5007174;28;20170;-87
2022/12/15 13:49:03;;;;;;;;;;;17.60;41.60;;;;;;5009664;28;19921;-87
2022/12/15 13:51:31;;;;;;;;;;;17.50;41.30;;;;;;5009093;28;20332;-87
2022/12/15 13:53:59;;;;;;;;;;;17.40;41.40;;;;;;5009658;28;20355;-87
2022/12/15 13:56:43;;;;;;;;;;;17.30;41.50;;;;;;5011128;28;19994;-87
2022/12/15 13:59:37;;;;;;;;;;;17.20;41.60;;;;;;5009037;28;19913;-87
2022/12/15 14:02:21;;;;;;;;;;;17.10;41.80;;;;;;4992085;28;20181;-87
2022/12/15 14:05:02;;;;;;;;;;;17.00;41.90;;;;;;5010157;28;19967;-87
2022/12/15 14:07:28;;;;;;;;;;;17.00;42.00;;;;;;5009098;28;20002;-87
2022/12/15 14:09:53;;;;;;;;;;;16.90;42.00;;;;;;5026905;28;19909;-87
2022/12/15 14:12:19;;;;;;;;;;;16.90;42.10;;;;;;5009687;28;20471;-87
2022/12/15 14:14:46;;;;;;;;;;;16.90;42.50;;;;;;5010526;28;20273;-87
2022/12/15 14:17:14;;;;;;;;;;;17.00;42.10;;;;;;5011609;28;19913;-87
2022/12/15 14:19:41;;;;;;;;;;;17.10;42.00;;;;;;5008389;28;19944;-87
2022/12/15 14:22:19;;;;;;;;;;;17.20;41.80;;;;;;5007511;28;19919;-87
2022/12/15 14:24:45;;;;;;;;;;;17.40;41.70;;;;;;5006477;28;19920;-87
2022/12/15 14:27:24;;;;;;;;;;;17.50;41.60;;;;;;5009569;28;19909;-87
2022/12/15 14:30:07;;;;;;;;;;;17.60;41.50;;;;;;5008196;28;20020;-87
2022/12/15 14:32:34;;;;;;;;;;;17.60;41.40;;;;;;5008990;28;20071;-87
2022/12/15 14:35:00;;;;;;;;;;;17.70;41.40;;;;;;5007380;28;19909;-87
2022/12/15 14:37:25;;;;;;;;;;;17.70;41.40;;;;;;5009785;28;19905;-87
2022/12/15 14:39:52;;;;;;;;;;;17.70;41.40;;;;;;5025439;28;19913;-87
2022/12/15 14:42:21;;;;;;;;;;;17.80;41.40;;;;;;5024951;28;20042;-87
2022/12/15 14:44:47;;;;;;;;;;;17.80;41.30;;;;;;5019940;28;20007;-87
2022/12/15 14:47:18;;;;;;;;;;;17.80;41.40;;;;;;5005033;28;20074;-87
2022/12/15 14:49:44;;;;;;;;;;;17.80;41.40;;;;;;5007245;28;19952;-87
2022/12/15 14:52:33;;;;;;;;;;;17.70;41.40;;;;;;5008130;28;19955;-86
2022/12/15 14:55:00;;;;;;;;;;;17.70;42.00;;;;;;5017065;28;20089;-86
2022/12/15 14:57:27;;;;;;;;;;;17.60;41.70;;;;;;5010552;28;20198;-86
2022/12/15 14:59:53;;;;;;;;;;;17.40;41.80;;;;;;5007516;28;20252;-87
2022/12/15 15:02:24;;;;;;;;;;;17.20;41.90;;;;;;5006219;28;20019;-86
2022/12/15 15:04:58;;;;;;;;;;;17.10;42.10;;;;;;5010042;28;20142;-86
2022/12/15 15:07:25;;;;;;;;;;;17.00;42.30;;;;;;5029708;28;19909;-86
2022/12/15 15:09:51;;;;;;;;;;;16.90;42.40;;;;;;5012556;28;19917;-87
2022/12/15 15:12:18;;;;;;;;;;;16.70;42.50;;;;;;5011692;28;19924;-86
2022/12/15 15:15:01;;;;;;;;;;;16.60;42.70;;;;;;5014420;28;20166;-86
2022/12/15 15:17:41;;;;;;;;;;;16.50;42.80;;;;;;5030856;28;19963;-86
2022/12/15 15:20:16;;;;;;;;;;;16.40;42.90;;;;;;5011187;28;20225;-86
2022/12/15 15:22:44;;;;;;;;;;;16.30;43.00;;;;;;5011315;28;20229;-86
2022/12/15 15:25:19;;;;;;;;;;;16.30;43.10;;;;;;5011195;28;19909;-86
2022/12/15 15:27:44;;;;;;;;;;;16.20;43.10;;;;;;5010333;28;19909;-86
2022/12/15 15:30:21;;;;;;;;;;;16.30;43.00;;;;;;5008637;28;19916;-86
2022/12/15 15:32:51;;;;;;;;;;;16.50;42.90;;;;;;5007456;28;19921;-86
2022/12/15 15:35:17;;;;;;;;;;;16.80;42.70;;;;;;5007692;28;19914;-86
2022/12/15 15:37:43;;;;;;;;;;;17.10;42.40;;;;;;5027890;28;19917;-85
2022/12/15 15:40:10;;;;;;;;;;;17.40;42.20;;;;;;5027703;28;19913;-85
2022/12/15 15:42:36;;;;;;;;;;;17.50;42.10;;;;;;5009098;28;19910;-86
2022/12/15 15:45:01;;;;;;;;;;;17.60;42.00;;;;;;5010112;28;20302;-86
2022/12/15 15:47:27;;;;;;;;;;;17.60;42.00;;;;;;5009012;28;19916;-86
2022/12/15 15:49:54;;;;;;;;;;;17.70;42.10;;;;;;5029939;28;19917;-86
2022/12/15 15:52:20;;;;;;;;;;;17.70;42.10;;;;;;5026736;28;20039;-86
2022/12/15 15:54:46;;;;;;;;;;;17.70;42.10;;;;;;5011037;28;20027;-86
2022/12/15 15:57:16;;;;;;;;;;;17.70;42.20;;;;;;5010308;28;20183;-87
2022/12/15 15:59:44;;;;;;;;;;;17.70;42.20;;;;;;5012724;28;19986;-86
2022/12/15 16:02:10;;;;;;;;;;;17.60;42.20;;;;;;5003881;28;19972;-86
2022/12/15 16:04:39;;;;;;;;;;;17.60;42.40;;;;;;5000360;28;19909;-85
2022/12/15 16:07:05;;;;;;;;;;;17.50;42.60;;;;;;4998137;28;19945;-85
2022/12/15 16:09:31;;;;;;;;;;;17.40;43.00;;;;;;4994559;28;19935;-86
2022/12/15 16:11:57;;;;;;;;;;;17.30;43.40;;;;;;4994760;28;19909;-86
2022/12/15 16:14:23;;;;;;;;;;;17.20;43.70;;;;;;4995068;28;19918;-86
2022/12/15 16:16:48;;;;;;;;;;;17.10;43.90;;;;;;4993184;28;19917;-86
2022/12/15 16:19:14;;;;;;;;;;;17.00;44.10;;;;;;4993699;28;20159;-86
2022/12/15 16:21:41;;;;;;;;;;;17.00;44.40;;;;;;5008804;28;19992;-86
2022/12/15 16:24:08;;;;;;;;;;;16.90;44.60;;;;;;5009964;28;20443;-86
2022/12/15 16:26:36;;;;;;;;;;;16.70;44.80;;;;;;5009807;28;19990;-86
2022/12/15 16:29:02;;;;;;;;;;;16.60;45.00;;;;;;4991016;28;20187;-86
2022/12/15 16:31:29;;;;;;;;;;;16.60;45.30;;;;;;4992307;28;19911;-86
2022/12/15 16:33:54;;;;;;;;;;;16.50;45.50;;;;;;4994341;28;20259;-86
2022/12/15 16:36:20;;;;;;;;;;;16.40;45.70;;;;;;4995819;28;19920;-86
2022/12/15 16:38:46;;;;;;;;;;;16.30;45.90;;;;;;5004550;28;20246;-86
2022/12/15 16:41:13;;;;;;;;;;;16.30;46.20;;;;;;5005888;28;19917;-86
2022/12/15 16:43:39;;;;;;;;;;;16.30;46.30;;;;;;5005193;28;19956;-86
2022/12/15 16:46:05;;;;;;;;;;;16.30;46.50;;;;;;5004416;28;19909;-86
2022/12/15 16:48:30;;;;;;;;;;;16.20;46.70;;;;;;5011624;28;19909;-86
2022/12/15 16:50:57;;;;;;;;;;;16.20;46.80;;;;;;4991331;28;19921;-86